Terminal Aerodrome Forecast
Issued by NWS Mt. Holly, NJ

Home | Current Version | Previous Version | Text Only | Print | Product List | Glossary On
Versions: 1 2 3 4 5 6 7 8 9 10 11 12 13 14 15 16 17 18 19 20
000
FTUS41 KPHI 241700
TAFACY
TAF
KACY 241720Z 2418/2518 34008KT P6SM BKN040
     FM242100 15006KT P6SM BKN035
     FM250300 34003KT P6SM SCT060 BKN250
     FM251300 34007KT P6SM FEW060
     FM251700 13007KT P6SM SKC=

USA.gov is the U.S. government's official web portal to all federal, state and local government web resources and services.